sensor_id;sensor_type;location;lat;lon;timestamp;temperature;humidity
5705;DHT22;2877;48.238;11.160;2023-03-25T00:00:17;7.50;99.90
5705;DHT22;2877;48.238;11.160;2023-03-25T00:02:48;7.40;99.90
5705;DHT22;2877;48.238;11.160;2023-03-25T00:05:16;7.40;99.90
5705;DHT22;2877;48.238;11.160;2023-03-25T00:07:43;7.40;99.90
5705;DHT22;2877;48.238;11.160;2023-03-25T00:10:10;7.40;99.90
5705;DHT22;2877;48.238;11.160;2023-03-25T00:12:36;7.40;99.90
5705;DHT22;2877;48.238;11.160;2023-03-25T00:15:03;7.50;99.90
5705;DHT22;2877;48.238;11.160;2023-03-25T00:17:29;7.60;99.90
5705;DHT22;2877;48.238;11.160;2023-03-25T00:19:55;7.70;99.90
5705;DHT22;2877;48.238;11.160;2023-03-25T00:22:21;7.80;99.90
5705;DHT22;2877;48.238;11.160;2023-03-25T00:24:47;7.90;99.90
5705;DHT22;2877;48.238;11.160;2023-03-25T00:27:13;7.90;99.90
5705;DHT22;2877;48.238;11.160;2023-03-25T00:29:42;8.00;99.90
5705;DHT22;2877;48.238;11.160;2023-03-25T00:32:08;8.10;99.90
5705;DHT22;2877;48.238;11.160;2023-03-25T00:34:34;8.10;99.90
5705;DHT22;2877;48.238;11.160;2023-03-25T00:37:00;8.20;99.90
5705;DHT22;2877;48.238;11.160;2023-03-25T00:39:29;8.20;99.90
5705;DHT22;2877;48.238;11.160;2023-03-25T00:41:54;8.20;99.90
5705;DHT22;2877;48.238;11.160;2023-03-25T00:44:21;8.30;99.90
5705;DHT22;2877;48.238;11.160;2023-03-25T00:46:47;8.30;99.90
5705;DHT22;2877;48.238;11.160;2023-03-25T00:49:12;8.30;99.90
5705;DHT22;2877;48.238;11.160;2023-03-25T00:51:38;8.40;99.90
5705;DHT22;2877;48.238;11.160;2023-03-25T00:54:04;8.40;99.90
5705;DHT22;2877;48.238;11.160;2023-03-25T00:56:30;8.50;99.90
5705;DHT22;2877;48.238;11.160;2023-03-25T00:58:56;8.50;99.90
5705;DHT22;2877;48.238;11.160;2023-03-25T01:01:24;8.50;99.90
5705;DHT22;2877;48.238;11.160;2023-03-25T01:03:55;8.50;99.90
5705;DHT22;2877;48.238;11.160;2023-03-25T01:06:34;8.50;99.90
5705;DHT22;2877;48.238;11.160;2023-03-25T01:09:02;8.50;99.90
5705;DHT22;2877;48.238;11.160;2023-03-25T01:11:30;8.50;99.90
5705;DHT22;2877;48.238;11.160;2023-03-25T01:13:59;8.50;99.90
5705;DHT22;2877;48.238;11.160;2023-03-25T01:16:26;8.40;99.90
5705;DHT22;2877;48.238;11.160;2023-03-25T01:18:53;8.40;99.90
5705;DHT22;2877;48.238;11.160;2023-03-25T01:21:19;8.40;99.90
5705;DHT22;2877;48.238;11.160;2023-03-25T01:23:44;8.40;99.90
5705;DHT22;2877;48.238;11.160;2023-03-25T01:26:10;8.40;99.90
5705;DHT22;2877;48.238;11.160;2023-03-25T01:28:38;8.40;99.90
5705;DHT22;2877;48.238;11.160;2023-03-25T01:31:05;8.40;99.90
5705;DHT22;2877;48.238;11.160;2023-03-25T01:33:32;8.30;99.90
5705;DHT22;2877;48.238;11.160;2023-03-25T01:35:58;8.30;99.90
5705;DHT22;2877;48.238;11.160;2023-03-25T01:38:24;8.30;99.90
5705;DHT22;2877;48.238;11.160;2023-03-25T01:40:51;8.30;99.90
5705;DHT22;2877;48.238;11.160;2023-03-25T01:43:17;8.30;99.90
5705;DHT22;2877;48.238;11.160;2023-03-25T01:45:43;8.30;99.90
5705;DHT22;2877;48.238;11.160;2023-03-25T01:48:17;8.30;99.90
5705;DHT22;2877;48.238;11.160;2023-03-25T01:50:47;8.30;99.90
5705;DHT22;2877;48.238;11.160;2023-03-25T01:53:14;8.30;99.90
5705;DHT22;2877;48.238;11.160;2023-03-25T01:55:42;8.30;99.90
5705;DHT22;2877;48.238;11.160;2023-03-25T01:58:11;8.30;99.90
5705;DHT22;2877;48.238;11.160;2023-03-25T02:00:41;8.30;99.90
5705;DHT22;2877;48.238;11.160;2023-03-25T02:03:08;8.30;99.90
5705;DHT22;2877;48.238;11.160;2023-03-25T02:06:00;8.20;99.90
5705;DHT22;2877;48.238;11.160;2023-03-25T02:08:29;8.20;99.90
5705;DHT22;2877;48.238;11.160;2023-03-25T02:10:57;8.20;99.90
5705;DHT22;2877;48.238;11.160;2023-03-25T02:13:22;8.10;99.90
5705;DHT22;2877;48.238;11.160;2023-03-25T02:16:15;8.10;99.90
5705;DHT22;2877;48.238;11.160;2023-03-25T02:18:46;8.00;99.90
5705;DHT22;2877;48.238;11.160;2023-03-25T02:21:45;7.90;99.90
5705;DHT22;2877;48.238;11.160;2023-03-25T02:27:51;7.80;99.90
5705;DHT22;2877;48.238;11.160;2023-03-25T02:38:53;7.60;99.90
5705;DHT22;2877;48.238;11.160;2023-03-25T02:42:03;7.60;99.90
5705;DHT22;2877;48.238;11.160;2023-03-25T02:44:17;7.60;99.90
5705;DHT22;2877;48.238;11.160;2023-03-25T02:46:51;7.50;99.90
5705;DHT22;2877;48.238;11.160;2023-03-25T02:49:24;7.50;99.90
5705;DHT22;2877;48.238;11.160;2023-03-25T02:52:06;7.60;99.90
5705;DHT22;2877;48.238;11.160;2023-03-25T02:54:34;7.70;99.90
5705;DHT22;2877;48.238;11.160;2023-03-25T02:57:02;7.70;99.90
5705;DHT22;2877;48.238;11.160;2023-03-25T02:59:29;7.70;99.90
5705;DHT22;2877;48.238;11.160;2023-03-25T03:01:59;7.70;99.90
5705;DHT22;2877;48.238;11.160;2023-03-25T03:04:27;7.60;99.90
5705;DHT22;2877;48.238;11.160;2023-03-25T03:06:54;7.60;99.90
5705;DHT22;2877;48.238;11.160;2023-03-25T03:09:30;7.60;99.90
5705;DHT22;2877;48.238;11.160;2023-03-25T03:12:23;7.60;99.90
5705;DHT22;2877;48.238;11.160;2023-03-25T03:18:30;7.50;99.90
5705;DHT22;2877;48.238;11.160;2023-03-25T03:21:17;7.40;99.90
5705;DHT22;2877;48.238;11.160;2023-03-25T03:23:57;7.40;99.90
5705;DHT22;2877;48.238;11.160;2023-03-25T03:26:25;7.30;99.90
5705;DHT22;2877;48.238;11.160;2023-03-25T03:29:08;7.30;99.90
5705;DHT22;2877;48.238;11.160;2023-03-25T03:31:52;7.30;99.90
5705;DHT22;2877;48.238;11.160;2023-03-25T03:34:26;7.30;99.90
5705;DHT22;2877;48.238;11.160;2023-03-25T03:36:54;7.30;99.90
5705;DHT22;2877;48.238;11.160;2023-03-25T03:39:25;7.30;99.90
5705;DHT22;2877;48.238;11.160;2023-03-25T03:41:55;7.30;99.90
5705;DHT22;2877;48.238;11.160;2023-03-25T03:44:28;7.30;99.90
5705;DHT22;2877;48.238;11.160;2023-03-25T03:47:11;7.20;99.90
5705;DHT22;2877;48.238;11.160;2023-03-25T03:49:41;7.30;99.90
5705;DHT22;2877;48.238;11.160;2023-03-25T03:52:29;7.20;99.90
5705;DHT22;2877;48.238;11.160;2023-03-25T03:55:02;7.10;99.90
5705;DHT22;2877;48.238;11.160;2023-03-25T03:57:37;7.10;99.90
5705;DHT22;2877;48.238;11.160;2023-03-25T04:00:11;7.10;99.90
5705;DHT22;2877;48.238;11.160;2023-03-25T04:02:42;7.10;99.90
5705;DHT22;2877;48.238;11.160;2023-03-25T04:05:11;7.10;99.90
5705;DHT22;2877;48.238;11.160;2023-03-25T04:07:42;7.10;99.90
5705;DHT22;2877;48.238;11.160;2023-03-25T04:10:18;7.10;99.90
5705;DHT22;2877;48.238;11.160;2023-03-25T04:12:49;7.00;99.90
5705;DHT22;2877;48.238;11.160;2023-03-25T04:15:16;7.00;99.90
5705;DHT22;2877;48.238;11.160;2023-03-25T04:17:42;7.10;99.90
5705;DHT22;2877;48.238;11.160;2023-03-25T04:20:13;7.00;99.90
5705;DHT22;2877;48.238;11.160;2023-03-25T04:22:39;7.10;99.90
5705;DHT22;2877;48.238;11.160;2023-03-25T04:25:10;7.10;99.90
5705;DHT22;2877;48.238;11.160;2023-03-25T04:27:38;7.20;99.90
5705;DHT22;2877;48.238;11.160;2023-03-25T04:30:07;7.20;99.90
5705;DHT22;2877;48.238;11.160;2023-03-25T04:32:32;7.30;99.90
5705;DHT22;2877;48.238;11.160;2023-03-25T04:34:59;7.30;99.90
5705;DHT22;2877;48.238;11.160;2023-03-25T04:37:26;7.30;99.90
5705;DHT22;2877;48.238;11.160;2023-03-25T04:39:53;7.30;99.90
5705;DHT22;2877;48.238;11.160;2023-03-25T04:42:21;7.30;99.90
5705;DHT22;2877;48.238;11.160;2023-03-25T04:44:50;7.40;99.90
5705;DHT22;2877;48.238;11.160;2023-03-25T04:47:17;7.50;99.90
5705;DHT22;2877;48.238;11.160;2023-03-25T04:49:45;7.50;99.90
5705;DHT22;2877;48.238;11.160;2023-03-25T04:52:10;7.60;99.90
5705;DHT22;2877;48.238;11.160;2023-03-25T04:54:36;7.60;99.90
5705;DHT22;2877;48.238;11.160;2023-03-25T04:57:05;7.60;99.90
5705;DHT22;2877;48.238;11.160;2023-03-25T04:59:33;7.60;99.90
5705;DHT22;2877;48.238;11.160;2023-03-25T05:01:58;7.60;99.90
5705;DHT22;2877;48.238;11.160;2023-03-25T05:04:24;7.60;99.90
5705;DHT22;2877;48.238;11.160;2023-03-25T05:06:49;7.50;99.90
5705;DHT22;2877;48.238;11.160;2023-03-25T05:09:17;7.60;99.90
5705;DHT22;2877;48.238;11.160;2023-03-25T05:11:44;7.60;99.90
5705;DHT22;2877;48.238;11.160;2023-03-25T05:14:11;7.60;99.90
5705;DHT22;2877;48.238;11.160;2023-03-25T05:16:37;7.60;99.90
5705;DHT22;2877;48.238;11.160;2023-03-25T05:19:03;7.60;99.90
5705;DHT22;2877;48.238;11.160;2023-03-25T05:21:34;7.60;99.90
5705;DHT22;2877;48.238;11.160;2023-03-25T05:24:04;7.50;99.90
5705;DHT22;2877;48.238;11.160;2023-03-25T05:26:36;7.50;99.90
5705;DHT22;2877;48.238;11.160;2023-03-25T05:29:06;7.50;99.90
5705;DHT22;2877;48.238;11.160;2023-03-25T05:31:33;7.50;99.90
5705;DHT22;2877;48.238;11.160;2023-03-25T05:33:58;7.40;99.90
5705;DHT22;2877;48.238;11.160;2023-03-25T05:36:24;7.40;99.90
5705;DHT22;2877;48.238;11.160;2023-03-25T05:38:51;7.30;99.90
5705;DHT22;2877;48.238;11.160;2023-03-25T05:41:19;7.30;99.90
5705;DHT22;2877;48.238;11.160;2023-03-25T05:43:45;7.30;99.90
5705;DHT22;2877;48.238;11.160;2023-03-25T05:46:14;7.30;99.90
5705;DHT22;2877;48.238;11.160;2023-03-25T05:48:40;7.20;99.90
5705;DHT22;2877;48.238;11.160;2023-03-25T05:51:12;7.20;99.90
5705;DHT22;2877;48.238;11.160;2023-03-25T05:53:38;7.20;99.90
5705;DHT22;2877;48.238;11.160;2023-03-25T05:56:04;7.10;99.90
5705;DHT22;2877;48.238;11.160;2023-03-25T05:58:30;7.10;99.90
5705;DHT22;2877;48.238;11.160;2023-03-25T06:00:57;7.10;99.90
5705;DHT22;2877;48.238;11.160;2023-03-25T06:03:24;7.20;99.90
5705;DHT22;2877;48.238;11.160;2023-03-25T06:05:50;7.10;99.90
5705;DHT22;2877;48.238;11.160;2023-03-25T06:08:17;7.20;99.90
5705;DHT22;2877;48.238;11.160;2023-03-25T06:10:44;7.20;99.90
5705;DHT22;2877;48.238;11.160;2023-03-25T06:13:10;7.20;99.90
5705;DHT22;2877;48.238;11.160;2023-03-25T06:15:35;7.20;99.90
5705;DHT22;2877;48.238;11.160;2023-03-25T06:18:05;7.20;99.90
5705;DHT22;2877;48.238;11.160;2023-03-25T06:20:30;7.20;99.90
5705;DHT22;2877;48.238;11.160;2023-03-25T06:22:57;7.20;99.90
5705;DHT22;2877;48.238;11.160;2023-03-25T06:25:23;7.20;99.90
5705;DHT22;2877;48.238;11.160;2023-03-25T06:27:50;7.20;99.90
5705;DHT22;2877;48.238;11.160;2023-03-25T06:30:18;7.20;99.90
5705;DHT22;2877;48.238;11.160;2023-03-25T06:32:44;7.30;99.90
5705;DHT22;2877;48.238;11.160;2023-03-25T06:35:14;7.30;99.90
5705;DHT22;2877;48.238;11.160;2023-03-25T06:37:44;7.30;99.90
5705;DHT22;2877;48.238;11.160;2023-03-25T06:40:11;7.40;99.90
5705;DHT22;2877;48.238;11.160;2023-03-25T06:42:37;7.40;99.90
5705;DHT22;2877;48.238;11.160;2023-03-25T06:45:03;7.40;99.90
5705;DHT22;2877;48.238;11.160;2023-03-25T06:47:29;7.30;99.90
5705;DHT22;2877;48.238;11.160;2023-03-25T06:49:55;7.30;99.90
5705;DHT22;2877;48.238;11.160;2023-03-25T06:52:20;7.30;99.90
5705;DHT22;2877;48.238;11.160;2023-03-25T06:54:46;7.20;99.90
5705;DHT22;2877;48.238;11.160;2023-03-25T06:57:11;7.20;99.90
5705;DHT22;2877;48.238;11.160;2023-03-25T06:59:37;7.10;99.90
5705;DHT22;2877;48.238;11.160;2023-03-25T07:02:02;7.10;99.90
5705;DHT22;2877;48.238;11.160;2023-03-25T07:04:28;7.00;99.90
5705;DHT22;2877;48.238;11.160;2023-03-25T07:06:53;7.10;99.90
5705;DHT22;2877;48.238;11.160;2023-03-25T07:09:19;7.20;99.90
5705;DHT22;2877;48.238;11.160;2023-03-25T07:11:45;7.30;99.90
5705;DHT22;2877;48.238;11.160;2023-03-25T07:14:10;7.40;99.90
5705;DHT22;2877;48.238;11.160;2023-03-25T07:16:36;7.50;99.90
5705;DHT22;2877;48.238;11.160;2023-03-25T07:19:01;7.50;99.90
5705;DHT22;2877;48.238;11.160;2023-03-25T07:21:27;7.50;99.90
5705;DHT22;2877;48.238;11.160;2023-03-25T07:23:53;7.40;99.90
5705;DHT22;2877;48.238;11.160;2023-03-25T07:26:19;7.40;99.90
5705;DHT22;2877;48.238;11.160;2023-03-25T07:28:44;7.40;99.90
5705;DHT22;2877;48.238;11.160;2023-03-25T07:31:13;7.60;99.90
5705;DHT22;2877;48.238;11.160;2023-03-25T07:33:39;7.70;99.90
5705;DHT22;2877;48.238;11.160;2023-03-25T07:36:06;7.70;99.90
5705;DHT22;2877;48.238;11.160;2023-03-25T07:38:33;7.60;99.90
5705;DHT22;2877;48.238;11.160;2023-03-25T07:40:58;7.60;99.90
5705;DHT22;2877;48.238;11.160;2023-03-25T07:43:24;7.50;99.90
5705;DHT22;2877;48.238;11.160;2023-03-25T07:45:49;7.50;99.90
5705;DHT22;2877;48.238;11.160;2023-03-25T07:48:15;7.70;99.90
5705;DHT22;2877;48.238;11.160;2023-03-25T07:50:42;7.80;99.90
5705;DHT22;2877;48.238;11.160;2023-03-25T07:53:08;7.90;99.90
5705;DHT22;2877;48.238;11.160;2023-03-25T07:55:34;8.00;99.90
5705;DHT22;2877;48.238;11.160;2023-03-25T07:57:59;8.00;99.90
5705;DHT22;2877;48.238;11.160;2023-03-25T08:00:27;8.10;99.90
5705;DHT22;2877;48.238;11.160;2023-03-25T08:02:53;8.30;99.90
5705;DHT22;2877;48.238;11.160;2023-03-25T08:05:19;8.20;99.90
5705;DHT22;2877;48.238;11.160;2023-03-25T08:07:48;8.20;99.90
5705;DHT22;2877;48.238;11.160;2023-03-25T08:10:15;8.30;99.90
5705;DHT22;2877;48.238;11.160;2023-03-25T08:12:41;8.20;99.90
5705;DHT22;2877;48.238;11.160;2023-03-25T08:15:07;8.30;99.90
5705;DHT22;2877;48.238;11.160;2023-03-25T08:17:33;8.40;99.90
5705;DHT22;2877;48.238;11.160;2023-03-25T08:19:59;8.50;99.90
5705;DHT22;2877;48.238;11.160;2023-03-25T08:22:25;8.80;99.90
5705;DHT22;2877;48.238;11.160;2023-03-25T08:24:52;9.20;99.90
5705;DHT22;2877;48.238;11.160;2023-03-25T08:27:18;9.10;99.90
5705;DHT22;2877;48.238;11.160;2023-03-25T08:29:44;8.90;99.90
5705;DHT22;2877;48.238;11.160;2023-03-25T08:32:11;8.80;99.90
5705;DHT22;2877;48.238;11.160;2023-03-25T08:34:37;8.60;99.90
5705;DHT22;2877;48.238;11.160;2023-03-25T08:37:05;8.60;99.90
5705;DHT22;2877;48.238;11.160;2023-03-25T08:39:31;8.50;99.90
5705;DHT22;2877;48.238;11.160;2023-03-25T08:42:04;8.50;99.90
5705;DHT22;2877;48.238;11.160;2023-03-25T08:44:30;8.50;99.90
5705;DHT22;2877;48.238;11.160;2023-03-25T08:46:56;8.40;99.90
5705;DHT22;2877;48.238;11.160;2023-03-25T08:49:22;8.40;99.90
5705;DHT22;2877;48.238;11.160;2023-03-25T08:51:47;8.40;99.90
5705;DHT22;2877;48.238;11.160;2023-03-25T08:54:13;8.40;99.90
5705;DHT22;2877;48.238;11.160;2023-03-25T08:56:38;8.10;99.90
5705;DHT22;2877;48.238;11.160;2023-03-25T08:59:04;8.10;99.90
5705;DHT22;2877;48.238;11.160;2023-03-25T09:01:29;8.20;99.90
5705;DHT22;2877;48.238;11.160;2023-03-25T09:03:55;8.40;99.90
5705;DHT22;2877;48.238;11.160;2023-03-25T09:06:22;8.60;99.90
5705;DHT22;2877;48.238;11.160;2023-03-25T09:08:47;8.70;99.90
5705;DHT22;2877;48.238;11.160;2023-03-25T09:11:13;8.80;99.90
5705;DHT22;2877;48.238;11.160;2023-03-25T09:13:40;8.80;99.90
5705;DHT22;2877;48.238;11.160;2023-03-25T09:16:06;8.90;99.90
5705;DHT22;2877;48.238;11.160;2023-03-25T09:18:32;8.80;99.90
5705;DHT22;2877;48.238;11.160;2023-03-25T09:21:01;8.60;99.90
5705;DHT22;2877;48.238;11.160;2023-03-25T09:23:26;8.90;99.90
5705;DHT22;2877;48.238;11.160;2023-03-25T09:25:52;9.00;99.90
5705;DHT22;2877;48.238;11.160;2023-03-25T09:28:18;9.30;99.90
5705;DHT22;2877;48.238;11.160;2023-03-25T09:30:43;9.20;99.90
5705;DHT22;2877;48.238;11.160;2023-03-25T09:33:09;9.30;99.90
5705;DHT22;2877;48.238;11.160;2023-03-25T09:35:34;9.20;99.90
5705;DHT22;2877;48.238;11.160;2023-03-25T09:38:00;9.30;99.90
5705;DHT22;2877;48.238;11.160;2023-03-25T09:40:25;9.40;99.90
5705;DHT22;2877;48.238;11.160;2023-03-25T09:45:38;9.50;99.90
5705;DHT22;2877;48.238;11.160;2023-03-25T09:50:52;9.30;99.90
5705;DHT22;2877;48.238;11.160;2023-03-25T09:53:53;9.20;99.90
5705;DHT22;2877;48.238;11.160;2023-03-25T09:56:23;9.50;99.90
5705;DHT22;2877;48.238;11.160;2023-03-25T09:59:18;9.80;99.90
5705;DHT22;2877;48.238;11.160;2023-03-25T10:14:54;10.10;99.90
5705;DHT22;2877;48.238;11.160;2023-03-25T10:23:13;10.10;99.90
5705;DHT22;2877;48.238;11.160;2023-03-25T10:25:44;10.00;99.90
5705;DHT22;2877;48.238;11.160;2023-03-25T10:28:18;9.70;99.90
5705;DHT22;2877;48.238;11.160;2023-03-25T10:30:50;9.50;99.90
5705;DHT22;2877;48.238;11.160;2023-03-25T10:33:31;9.60;99.90
5705;DHT22;2877;48.238;11.160;2023-03-25T10:36:01;9.80;99.90
5705;DHT22;2877;48.238;11.160;2023-03-25T10:38:29;9.90;99.90
5705;DHT22;2877;48.238;11.160;2023-03-25T10:41:10;9.90;99.90
5705;DHT22;2877;48.238;11.160;2023-03-25T10:43:40;10.00;99.90
5705;DHT22;2877;48.238;11.160;2023-03-25T10:48:45;10.10;99.90
5705;DHT22;2877;48.238;11.160;2023-03-25T10:51:15;10.20;99.90
5705;DHT22;2877;48.238;11.160;2023-03-25T10:53:44;10.20;99.90
5705;DHT22;2877;48.238;11.160;2023-03-25T10:56:17;10.40;99.90
5705;DHT22;2877;48.238;11.160;2023-03-25T10:58:47;10.60;99.90
5705;DHT22;2877;48.238;11.160;2023-03-25T11:01:16;10.60;99.90
5705;DHT22;2877;48.238;11.160;2023-03-25T11:03:43;10.60;99.90
5705;DHT22;2877;48.238;11.160;2023-03-25T11:06:24;10.60;99.90
5705;DHT22;2877;48.238;11.160;2023-03-25T11:11:36;10.50;99.90
5705;DHT22;2877;48.238;11.160;2023-03-25T11:14:02;10.40;99.90
5705;DHT22;2877;48.238;11.160;2023-03-25T11:16:46;10.40;99.90
5705;DHT22;2877;48.238;11.160;2023-03-25T11:19:24;10.50;99.90
5705;DHT22;2877;48.238;11.160;2023-03-25T11:22:01;10.70;99.90
5705;DHT22;2877;48.238;11.160;2023-03-25T11:24:31;11.20;99.90
5705;DHT22;2877;48.238;11.160;2023-03-25T11:26:57;11.30;99.90
5705;DHT22;2877;48.238;11.160;2023-03-25T11:29:25;11.50;99.90
5705;DHT22;2877;48.238;11.160;2023-03-25T11:31:56;11.40;99.90
5705;DHT22;2877;48.238;11.160;2023-03-25T11:34:22;11.20;99.90
5705;DHT22;2877;48.238;11.160;2023-03-25T11:41:59;10.80;99.90
5705;DHT22;2877;48.238;11.160;2023-03-25T11:44:28;11.00;99.90
5705;DHT22;2877;48.238;11.160;2023-03-25T11:47:06;10.90;99.90
5705;DHT22;2877;48.238;11.160;2023-03-25T11:49:35;10.90;99.90
5705;DHT22;2877;48.238;11.160;2023-03-25T11:54:32;10.60;99.90
5705;DHT22;2877;48.238;11.160;2023-03-25T11:56:58;10.60;99.90
5705;DHT22;2877;48.238;11.160;2023-03-25T11:59:26;10.60;99.90
5705;DHT22;2877;48.238;11.160;2023-03-25T12:02:21;10.40;99.90
5705;DHT22;2877;48.238;11.160;2023-03-25T12:05:02;10.30;99.90
5705;DHT22;2877;48.238;11.160;2023-03-25T12:07:29;10.30;99.90
5705;DHT22;2877;48.238;11.160;2023-03-25T12:10:06;10.30;99.90
5705;DHT22;2877;48.238;11.160;2023-03-25T12:12:45;10.30;99.90
5705;DHT22;2877;48.238;11.160;2023-03-25T12:18:04;10.30;99.90
5705;DHT22;2877;48.238;11.160;2023-03-25T12:20:56;10.50;99.90
5705;DHT22;2877;48.238;11.160;2023-03-25T12:34:19;11.30;99.90
5705;DHT22;2877;48.238;11.160;2023-03-25T12:37:11;11.40;99.90
5705;DHT22;2877;48.238;11.160;2023-03-25T12:40:19;11.30;99.90
5705;DHT22;2877;48.238;11.160;2023-03-25T12:43:02;11.50;99.90
5705;DHT22;2877;48.238;11.160;2023-03-25T13:05:23;12.30;99.90
5705;DHT22;2877;48.238;11.160;2023-03-25T13:08:07;13.10;99.30
5705;DHT22;2877;48.238;11.160;2023-03-25T13:10:37;12.90;98.60
5705;DHT22;2877;48.238;11.160;2023-03-25T13:13:13;13.40;98.30
5705;DHT22;2877;48.238;11.160;2023-03-25T13:15:47;13.20;97.10
5705;DHT22;2877;48.238;11.160;2023-03-25T13:18:34;13.20;96.60
5705;DHT22;2877;48.238;11.160;2023-03-25T13:21:23;13.30;95.30
5705;DHT22;2877;48.238;11.160;2023-03-25T13:23:59;13.10;95.50
5705;DHT22;2877;48.238;11.160;2023-03-25T13:26:28;12.90;96.30
5705;DHT22;2877;48.238;11.160;2023-03-25T13:29:01;13.00;95.20
5705;DHT22;2877;48.238;11.160;2023-03-25T13:31:31;13.20;95.40
5705;DHT22;2877;48.238;11.160;2023-03-25T13:34:23;13.30;94.50
5705;DHT22;2877;48.238;11.160;2023-03-25T13:37:28;12.20;95.60
5705;DHT22;2877;48.238;11.160;2023-03-25T13:40:16;12.50;96.00
5705;DHT22;2877;48.238;11.160;2023-03-25T13:45:24;14.20;94.60
5705;DHT22;2877;48.238;11.160;2023-03-25T13:48:12;14.00;92.70
5705;DHT22;2877;48.238;11.160;2023-03-25T13:50:40;13.60;93.90
5705;DHT22;2877;48.238;11.160;2023-03-25T13:53:24;13.30;94.20
5705;DHT22;2877;48.238;11.160;2023-03-25T13:58:53;12.00;95.40
5705;DHT22;2877;48.238;11.160;2023-03-25T14:06:53;12.00;97.00
5705;DHT22;2877;48.238;11.160;2023-03-25T14:14:35;11.50;99.30
5705;DHT22;2877;48.238;11.160;2023-03-25T14:17:03;11.50;97.60
5705;DHT22;2877;48.238;11.160;2023-03-25T14:19:34;11.60;97.10
5705;DHT22;2877;48.238;11.160;2023-03-25T14:22:22;11.40;97.70
5705;DHT22;2877;48.238;11.160;2023-03-25T14:24:48;11.40;97.40
5705;DHT22;2877;48.238;11.160;2023-03-25T14:29:58;11.40;98.10
5705;DHT22;2877;48.238;11.160;2023-03-25T14:32:30;11.30;97.20
5705;DHT22;2877;48.238;11.160;2023-03-25T14:43:24;11.40;96.70
5705;DHT22;2877;48.238;11.160;2023-03-25T14:53:55;10.80;99.90
5705;DHT22;2877;48.238;11.160;2023-03-25T14:56:30;10.40;99.80
5705;DHT22;2877;48.238;11.160;2023-03-25T14:59:00;10.20;99.70
5705;DHT22;2877;48.238;11.160;2023-03-25T15:01:33;10.30;99.90
5705;DHT22;2877;48.238;11.160;2023-03-25T15:04:21;10.50;99.10
5705;DHT22;2877;48.238;11.160;2023-03-25T15:06:48;11.10;99.90
5705;DHT22;2877;48.238;11.160;2023-03-25T15:09:16;11.50;96.70
5705;DHT22;2877;48.238;11.160;2023-03-25T15:11:51;11.50;96.40
5705;DHT22;2877;48.238;11.160;2023-03-25T15:14:22;11.30;97.60
5705;DHT22;2877;48.238;11.160;2023-03-25T15:19:16;11.10;98.40
5705;DHT22;2877;48.238;11.160;2023-03-25T15:24:36;11.00;98.20
5705;DHT22;2877;48.238;11.160;2023-03-25T15:30:10;10.60;97.70
5705;DHT22;2877;48.238;11.160;2023-03-25T15:35:30;10.50;99.30
5705;DHT22;2877;48.238;11.160;2023-03-25T15:38:15;10.40;99.60
5705;DHT22;2877;48.238;11.160;2023-03-25T15:41:23;10.40;99.90
5705;DHT22;2877;48.238;11.160;2023-03-25T15:53:02;10.90;99.90
5705;DHT22;2877;48.238;11.160;2023-03-25T15:55:14;10.80;99.90
5705;DHT22;2877;48.238;11.160;2023-03-25T15:57:48;10.70;99.90
5705;DHT22;2877;48.238;11.160;2023-03-25T16:00:23;10.60;99.90
5705;DHT22;2877;48.238;11.160;2023-03-25T16:05:33;10.30;99.90
5705;DHT22;2877;48.238;11.160;2023-03-25T16:08:08;10.20;99.90
5705;DHT22;2877;48.238;11.160;2023-03-25T16:10:34;10.00;99.90
5705;DHT22;2877;48.238;11.160;2023-03-25T16:13:10;9.90;99.90
5705;DHT22;2877;48.238;11.160;2023-03-25T16:15:36;9.90;99.90
5705;DHT22;2877;48.238;11.160;2023-03-25T16:18:05;9.80;99.90
5705;DHT22;2877;48.238;11.160;2023-03-25T16:20:33;9.80;99.90
5705;DHT22;2877;48.238;11.160;2023-03-25T16:22:59;9.80;99.90
5705;DHT22;2877;48.238;11.160;2023-03-25T16:25:38;9.80;99.90
5705;DHT22;2877;48.238;11.160;2023-03-25T16:28:12;9.80;99.90
5705;DHT22;2877;48.238;11.160;2023-03-25T16:30:41;9.90;99.90
5705;DHT22;2877;48.238;11.160;2023-03-25T16:35:41;10.20;99.90
5705;DHT22;2877;48.238;11.160;2023-03-25T16:38:16;10.30;99.90
5705;DHT22;2877;48.238;11.160;2023-03-25T16:40:44;10.30;99.90
5705;DHT22;2877;48.238;11.160;2023-03-25T16:43:24;10.40;99.90
5705;DHT22;2877;48.238;11.160;2023-03-25T16:45:52;10.50;99.90
5705;DHT22;2877;48.238;11.160;2023-03-25T16:48:27;10.60;99.90
5705;DHT22;2877;48.238;11.160;2023-03-25T16:50:53;10.50;99.90
5705;DHT22;2877;48.238;11.160;2023-03-25T16:53:20;10.30;99.90
5705;DHT22;2877;48.238;11.160;2023-03-25T16:55:57;10.20;99.90
5705;DHT22;2877;48.238;11.160;2023-03-25T16:58:28;10.00;99.90
5705;DHT22;2877;48.238;11.160;2023-03-25T17:00:55;9.80;99.90
5705;DHT22;2877;48.238;11.160;2023-03-25T17:03:40;9.60;99.90
5705;DHT22;2877;48.238;11.160;2023-03-25T17:06:21;9.50;99.90
5705;DHT22;2877;48.238;11.160;2023-03-25T17:08:52;9.40;99.90
5705;DHT22;2877;48.238;11.160;2023-03-25T17:11:20;9.30;99.90
5705;DHT22;2877;48.238;11.160;2023-03-25T17:13:51;9.20;99.90
5705;DHT22;2877;48.238;11.160;2023-03-25T17:16:20;9.20;99.90
5705;DHT22;2877;48.238;11.160;2023-03-25T17:18:47;9.10;99.90
5705;DHT22;2877;48.238;11.160;2023-03-25T17:21:22;9.00;99.90
5705;DHT22;2877;48.238;11.160;2023-03-25T17:23:52;9.00;99.90
5705;DHT22;2877;48.238;11.160;2023-03-25T17:26:19;8.80;99.90
5705;DHT22;2877;48.238;11.160;2023-03-25T17:31:38;8.70;99.90
5705;DHT22;2877;48.238;11.160;2023-03-25T17:34:13;8.60;99.90
5705;DHT22;2877;48.238;11.160;2023-03-25T17:36:45;8.50;99.90
5705;DHT22;2877;48.238;11.160;2023-03-25T17:39:32;8.40;99.90
5705;DHT22;2877;48.238;11.160;2023-03-25T17:42:05;8.40;99.90
5705;DHT22;2877;48.238;11.160;2023-03-25T17:44:43;8.30;99.90
5705;DHT22;2877;48.238;11.160;2023-03-25T17:47:17;8.20;99.90
5705;DHT22;2877;48.238;11.160;2023-03-25T17:49:43;8.20;99.90
5705;DHT22;2877;48.238;11.160;2023-03-25T17:52:08;8.10;99.90
5705;DHT22;2877;48.238;11.160;2023-03-25T17:54:35;8.10;99.90
5705;DHT22;2877;48.238;11.160;2023-03-25T17:57:09;8.10;99.90
5705;DHT22;2877;48.238;11.160;2023-03-25T17:59:37;8.00;99.90
5705;DHT22;2877;48.238;11.160;2023-03-25T18:02:12;8.10;99.90
5705;DHT22;2877;48.238;11.160;2023-03-25T18:04:37;8.10;99.90
5705;DHT22;2877;48.238;11.160;2023-03-25T18:07:03;8.10;99.90
5705;DHT22;2877;48.238;11.160;2023-03-25T18:09:29;8.10;99.90
5705;DHT22;2877;48.238;11.160;2023-03-25T18:11:55;8.00;99.90
5705;DHT22;2877;48.238;11.160;2023-03-25T18:14:22;8.10;99.90
5705;DHT22;2877;48.238;11.160;2023-03-25T18:16:48;8.00;99.90
5705;DHT22;2877;48.238;11.160;2023-03-25T18:19:16;8.00;99.90
5705;DHT22;2877;48.238;11.160;2023-03-25T18:21:42;7.90;99.90
5705;DHT22;2877;48.238;11.160;2023-03-25T18:24:07;7.90;99.90
5705;DHT22;2877;48.238;11.160;2023-03-25T18:26:33;7.90;99.90
5705;DHT22;2877;48.238;11.160;2023-03-25T18:28:59;7.80;99.90
5705;DHT22;2877;48.238;11.160;2023-03-25T18:31:27;7.80;99.90
5705;DHT22;2877;48.238;11.160;2023-03-25T18:33:52;7.80;99.90
5705;DHT22;2877;48.238;11.160;2023-03-25T18:36:20;7.70;99.90
5705;DHT22;2877;48.238;11.160;2023-03-25T18:38:45;7.70;99.90
5705;DHT22;2877;48.238;11.160;2023-03-25T18:41:12;7.70;99.90
5705;DHT22;2877;48.238;11.160;2023-03-25T18:43:42;7.70;99.90
5705;DHT22;2877;48.238;11.160;2023-03-25T18:46:11;7.70;99.90